Time;durP1;ratioP1;P1;durP2;ratioP2;P2;SDS_P1;SDS_P2;PMS_P1;PMS_P2;Temp;Humidity;BMP_temperature;BMP_pressure;BME280_temperature;BME280_humidity;BME280_pressure;Samples;Min_cycle;Max_cycle;Signal;HPM_P1;HPM_P2
2021/12/25 00:00:44;;;;;;;29.23;8.40;;;0.70;99.90;;;;;;5092653;28;20170;-72
2021/12/25 00:03:10;;;;;;;29.52;7.38;;;0.70;99.90;;;;;;5104427;28;20048;-69
2021/12/25 00:05:35;;;;;;;32.55;7.72;;;0.70;99.90;;;;;;5093313;28;20047;-71
2021/12/25 00:08:01;;;;;;;29.15;8.02;;;0.70;99.90;;;;;;5090758;28;20402;-72
2021/12/25 00:10:30;;;;;;;28.92;8.48;;;0.60;99.90;;;;;;5080130;28;20043;-73
2021/12/25 00:12:56;;;;;;;30.20;7.57;;;0.70;99.90;;;;;;5098137;28;20027;-72
2021/12/25 00:15:22;;;;;;;25.55;7.63;;;0.60;99.90;;;;;;5099768;28;20389;-70
2021/12/25 00:17:47;;;;;;;26.58;6.22;;;0.60;99.90;;;;;;5102855;28;20032;-73
2021/12/25 00:20:13;;;;;;;27.27;6.68;;;0.50;99.90;;;;;;5087759;28;20032;-67
2021/12/25 00:22:39;;;;;;;22.30;6.72;;;0.60;99.90;;;;;;5092612;28;20044;-68
2021/12/25 00:25:05;;;;;;;24.70;5.88;;;0.50;99.90;;;;;;5091811;28;20051;-75
2021/12/25 00:27:42;;;;;;;21.13;7.00;;;0.50;99.90;;;;;;5093091;28;20109;-76
2021/12/25 00:30:16;;;;;;;23.50;6.00;;;0.50;99.90;;;;;;5091921;28;20039;-73
2021/12/25 00:35:33;;;;;;;22.80;4.85;;;0.40;99.90;;;;;;5067131;28;20048;-69
2021/12/25 00:37:59;;;;;;;21.33;5.75;;;0.40;99.90;;;;;;5090060;28;20490;-73
2021/12/25 00:40:25;;;;;;;22.30;5.43;;;0.40;99.90;;;;;;5094022;28;20143;-71
2021/12/25 00:42:50;;;;;;;19.50;4.75;;;0.30;99.90;;;;;;5103209;28;20031;-75
2021/12/25 00:45:16;;;;;;;24.42;6.07;;;0.30;99.90;;;;;;5094664;28;20567;-72
2021/12/25 00:47:42;;;;;;;27.33;6.25;;;0.30;99.90;;;;;;5092960;28;20066;-73
2021/12/25 00:50:09;;;;;;;23.90;6.60;;;0.20;99.90;;;;;;5093008;28;20043;-71
2021/12/25 00:52:34;;;;;;;22.17;5.80;;;0.20;99.90;;;;;;5091010;28;20042;-69
2021/12/25 00:55:01;;;;;;;21.30;5.15;;;0.10;99.90;;;;;;5076632;28;20095;-69
2021/12/25 00:57:27;;;;;;;20.50;5.90;;;0.10;99.90;;;;;;5093326;28;20036;-70
2021/12/25 00:59:52;;;;;;;17.42;4.55;;;0.10;99.90;;;;;;5074026;28;20510;-72
2021/12/25 01:02:18;;;;;;;18.98;5.15;;;0.00;99.90;;;;;;5092147;28;20040;-67
2021/12/25 01:04:43;;;;;;;14.82;3.60;;;0.00;99.90;;;;;;5091898;28;20040;-73
2021/12/25 01:07:09;;;;;;;19.10;4.18;;;-0.10;99.90;;;;;;5092831;28;20166;-72
2021/12/25 01:09:35;;;;;;;19.15;4.78;;;-0.10;99.90;;;;;;5097275;28;20119;-72
2021/12/25 01:12:00;;;;;;;17.63;5.25;;;-0.10;99.90;;;;;;5091121;28;20032;-71
2021/12/25 01:25:32;;;;;;;25.02;5.60;;;-0.20;99.90;;;;;;5091534;28;20171;-73
2021/12/25 01:30:56;;;;;;;17.75;5.22;;;-0.30;99.90;;;;;;5091016;28;20046;-73
2021/12/25 01:49:37;;;;;;;7.70;2.97;;;-0.60;99.90;;;;;;5099282;28;20051;-71
2021/12/25 01:52:04;;;;;;;13.77;3.70;;;-0.60;99.90;;;;;;5102260;28;20110;-70
2021/12/25 01:54:29;;;;;;;13.02;3.42;;;-0.60;99.90;;;;;;5089824;28;20131;-72
2021/12/25 01:56:55;;;;;;;22.92;3.53;;;-0.70;99.90;;;;;;5073184;28;20131;-72
2021/12/25 01:59:21;;;;;;;12.50;2.85;;;-0.70;99.90;;;;;;5073357;28;20482;-74
2021/12/25 02:01:47;;;;;;;8.45;2.33;;;-0.80;99.90;;;;;;5090826;28;20578;-69
2021/12/25 02:04:13;;;;;;;12.73;2.47;;;-0.80;99.90;;;;;;5074258;28;20063;-69
2021/12/25 02:06:38;;;;;;;8.32;2.60;;;-0.80;99.90;;;;;;5090868;28;20050;-70
2021/12/25 02:09:05;;;;;;;16.50;2.80;;;-0.90;99.90;;;;;;5090616;28;20044;-74
2021/12/25 02:11:31;;;;;;;10.70;2.75;;;-0.90;99.90;;;;;;5089144;28;20040;-71
2021/12/25 02:13:58;;;;;;;6.28;2.17;;;-0.90;99.90;;;;;;5090595;28;20032;-74
2021/12/25 02:16:29;;;;;;;12.43;3.45;;;-1.00;99.90;;;;;;5089511;28;20051;-74
2021/12/25 02:21:30;;;;;;;12.93;2.80;;;-1.10;99.90;;;;;;5094920;28;20478;-71
2021/12/25 02:23:58;;;;;;;9.55;2.85;;;-1.20;99.90;;;;;;5090104;28;20065;-74
2021/12/25 02:26:26;;;;;;;5.68;1.80;;;-1.10;99.90;;;;;;5089768;28;20043;-71
2021/12/25 02:28:52;;;;;;;14.48;2.65;;;-1.20;99.90;;;;;;5082545;28;20113;-70
2021/12/25 02:31:18;;;;;;;6.32;2.30;;;-1.20;99.90;;;;;;5097756;28;20043;-72
2021/12/25 02:33:44;;;;;;;12.88;2.72;;;-1.30;99.90;;;;;;5092378;28;20032;-70
2021/12/25 02:36:12;;;;;;;9.48;2.70;;;-1.30;99.90;;;;;;5097977;28;20036;-71
2021/12/25 02:38:38;;;;;;;10.40;3.13;;;-1.30;99.90;;;;;;5097989;28;20035;-70
2021/12/25 02:41:05;;;;;;;11.48;2.83;;;-1.40;99.90;;;;;;5091936;28;20115;-69
2021/12/25 02:43:31;;;;;;;8.98;2.90;;;-1.40;99.90;;;;;;5071273;28;20111;-70
2021/12/25 02:46:02;;;;;;;7.00;2.00;;;-1.50;99.90;;;;;;5090234;28;20128;-72
2021/12/25 02:48:27;;;;;;;12.55;2.03;;;-1.50;99.90;;;;;;5088811;28;20061;-70
2021/12/25 02:50:53;;;;;;;15.75;2.88;;;-1.50;99.90;;;;;;5089783;28;20137;-71
2021/12/25 02:53:18;;;;;;;7.43;2.00;;;-1.50;99.90;;;;;;5090431;28;20065;-70
2021/12/25 02:55:45;;;;;;;9.30;2.95;;;-1.60;99.90;;;;;;5088315;28;20379;-72
2021/12/25 02:58:11;;;;;;;10.98;2.45;;;-1.60;99.90;;;;;;5084657;28;20045;-70
2021/12/25 03:00:45;;;;;;;7.47;2.50;;;-1.60;99.90;;;;;;5089935;28;20028;-72
2021/12/25 03:03:11;;;;;;;10.95;2.38;;;-1.60;99.90;;;;;;5083633;28;20118;-72
2021/12/25 03:05:37;;;;;;;10.18;2.65;;;-1.70;99.90;;;;;;5094802;28;20036;-69
2021/12/25 03:08:05;;;;;;;8.77;2.40;;;-1.70;99.90;;;;;;5091625;28;20378;-72
2021/12/25 03:10:33;;;;;;;8.13;2.15;;;-1.80;99.90;;;;;;5092596;28;20071;-72
2021/12/25 03:15:45;;;;;;;6.55;2.85;;;-1.80;99.90;;;;;;5112198;27;20044;-73
2021/12/25 03:18:15;;;;;;;9.85;1.80;;;-1.80;99.90;;;;;;5097832;28;20032;-70
2021/12/25 03:20:44;;;;;;;5.28;1.75;;;-1.80;99.90;;;;;;5095521;28;20039;-75
2021/12/25 03:23:15;;;;;;;11.07;2.33;;;-1.90;99.90;;;;;;5095924;28;20036;-73
2021/12/25 03:25:43;;;;;;;9.73;1.85;;;-2.00;99.90;;;;;;5114498;28;20088;-72
2021/12/25 03:28:09;;;;;;;9.60;1.80;;;-2.00;99.90;;;;;;5102637;28;20054;-70
2021/12/25 03:30:38;;;;;;;7.10;2.03;;;-2.00;99.90;;;;;;5098783;28;20108;-72
2021/12/25 03:33:09;;;;;;;10.50;2.60;;;-2.10;99.90;;;;;;5087881;28;20040;-73
2021/12/25 03:35:36;;;;;;;9.05;2.13;;;-2.10;99.90;;;;;;5074169;28;20622;-74
2021/12/25 03:38:03;;;;;;;12.93;1.70;;;-2.20;99.90;;;;;;5070681;28;20040;-72
2021/12/25 03:40:29;;;;;;;6.25;1.80;;;-2.10;99.90;;;;;;5099231;28;20044;-75
2021/12/25 03:42:55;;;;;;;6.15;1.85;;;-2.10;99.90;;;;;;5088665;28;20066;-74
2021/12/25 03:45:20;;;;;;;5.53;1.30;;;-2.20;99.90;;;;;;5092004;28;20035;-72
2021/12/25 03:47:48;;;;;;;8.65;1.50;;;-2.30;99.90;;;;;;5079713;28;20048;-73
2021/12/25 03:53:24;;;;;;;3.95;1.75;;;-2.30;99.90;;;;;;5089079;28;20127;-74
2021/12/25 03:58:33;;;;;;;3.75;1.10;;;-2.40;99.90;;;;;;5086275;28;20060;-75
2021/12/25 04:01:11;;;;;;;8.73;1.83;;;-2.30;99.90;;;;;;5088690;28;20051;-74
2021/12/25 04:04:25;;;;;;;2.28;1.27;;;-2.40;99.90;;;;;;5087390;28;20045;-72
2021/12/25 04:06:25;;;;;;;8.07;1.90;;;-2.40;99.90;;;;;;5076391;28;20452;-75
2021/12/25 04:08:52;;;;;;;5.07;1.85;;;-2.40;99.90;;;;;;5087283;28;20032;-72
2021/12/25 04:11:27;;;;;;;8.15;2.03;;;-2.50;99.90;;;;;;5088630;28;20036;-74
2021/12/25 04:13:53;;;;;;;6.35;1.95;;;-2.50;99.90;;;;;;5076414;28;20560;-73
2021/12/25 04:16:19;;;;;;;3.80;1.20;;;-2.60;99.90;;;;;;5088398;28;20040;-73
2021/12/25 04:18:45;;;;;;;7.50;1.45;;;-2.50;99.90;;;;;;5086910;28;20119;-72
2021/12/25 04:21:11;;;;;;;1.77;0.85;;;-2.60;99.90;;;;;;5087313;28;20032;-74
2021/12/25 04:23:40;;;;;;;4.22;1.45;;;-2.60;99.90;;;;;;5086201;28;20036;-74
2021/12/25 04:26:06;;;;;;;5.28;1.40;;;-2.60;99.90;;;;;;5084660;28;20043;-72
2021/12/25 04:42:43;;;;;;;4.25;1.60;;;-2.80;99.90;;;;;;5090699;28;20044;-74
2021/12/25 04:50:39;;;;;;;4.72;1.48;;;-3.00;99.90;;;;;;5089751;28;20063;-72
2021/12/25 05:04:01;;;;;;;5.35;1.52;;;-3.00;99.90;;;;;;5046996;28;20159;-74
2021/12/25 05:06:27;;;;;;;2.33;0.88;;;-3.10;99.90;;;;;;5090752;28;20047;-71
2021/12/25 05:08:54;;;;;;;4.90;1.08;;;-3.10;99.90;;;;;;5072702;28;20032;-75
2021/12/25 05:11:21;;;;;;;3.85;1.08;;;-3.10;99.90;;;;;;5090508;28;20455;-73
2021/12/25 05:13:49;;;;;;;8.60;1.17;;;-3.10;99.90;;;;;;5084581;28;20032;-73
2021/12/25 05:16:16;;;;;;;4.70;1.05;;;-3.10;99.90;;;;;;5080623;28;20100;-70
2021/12/25 05:18:41;;;;;;;3.85;1.17;;;-3.20;99.90;;;;;;5093651;28;20047;-70
2021/12/25 05:21:07;;;;;;;2.10;1.05;;;-3.20;99.90;;;;;;5087293;28;20044;-70
2021/12/25 05:23:36;;;;;;;4.05;1.30;;;-3.20;99.90;;;;;;5081275;28;20054;-69
2021/12/25 05:26:03;;;;;;;2.72;1.08;;;-3.20;99.90;;;;;;5087233;28;20453;-73
2021/12/25 05:28:38;;;;;;;4.43;1.50;;;-3.20;99.90;;;;;;5090110;28;20044;-71
2021/12/25 05:31:04;;;;;;;5.70;1.02;;;-3.20;99.90;;;;;;5088906;28;20063;-70
2021/12/25 05:33:30;;;;;;;5.70;1.10;;;-3.20;99.90;;;;;;5084046;28;20047;-69
2021/12/25 05:35:56;;;;;;;5.28;1.33;;;-3.20;99.90;;;;;;5090200;28;20094;-70
2021/12/25 05:38:22;;;;;;;3.72;1.13;;;-3.20;99.90;;;;;;5089993;28;20119;-72
2021/12/25 05:40:48;;;;;;;5.55;0.85;;;-3.30;99.90;;;;;;5088897;28;20059;-71
2021/12/25 05:43:13;;;;;;;3.10;1.40;;;-3.30;99.90;;;;;;5089020;28;20036;-71
2021/12/25 05:45:39;;;;;;;5.50;0.95;;;-3.30;99.90;;;;;;5089722;28;20044;-73
2021/12/25 05:48:05;;;;;;;2.33;1.15;;;-3.30;99.90;;;;;;5080246;28;20062;-71
2021/12/25 05:50:31;;;;;;;2.35;1.35;;;-3.30;99.90;;;;;;5092039;28;20472;-74
2021/12/25 05:52:57;;;;;;;2.80;1.30;;;-3.30;99.90;;;;;;5095795;28;20122;-71
2021/12/25 05:55:24;;;;;;;1.60;0.77;;;-3.30;99.90;;;;;;5086825;28;20044;-68
2021/12/25 05:57:49;;;;;;;1.75;1.10;;;-3.20;99.90;;;;;;5094203;28;20089;-73
2021/12/25 06:00:16;;;;;;;4.97;1.10;;;-3.30;99.90;;;;;;5088585;28;20447;-71
2021/12/25 06:02:42;;;;;;;4.15;1.25;;;-3.30;99.90;;;;;;5089227;28;20436;-72
2021/12/25 06:05:08;;;;;;;2.88;1.35;;;-3.20;99.90;;;;;;5089260;28;20089;-76
2021/12/25 06:07:34;;;;;;;4.25;0.90;;;-3.30;99.90;;;;;;5089561;28;20031;-68
2021/12/25 06:09:59;;;;;;;3.75;1.02;;;-3.20;99.90;;;;;;5089249;28;20488;-71
2021/12/25 06:12:26;;;;;;;12.38;1.90;;;-3.30;99.90;;;;;;5087197;28;20101;-70
2021/12/25 06:14:53;;;;;;;6.60;1.63;;;-3.30;99.90;;;;;;5089159;28;20044;-73
2021/12/25 06:17:19;;;;;;;2.95;1.50;;;-3.30;99.90;;;;;;5089578;28;20032;-73
2021/12/25 06:19:45;;;;;;;4.38;1.42;;;-3.30;99.90;;;;;;5071761;28;20043;-71
2021/12/25 06:22:11;;;;;;;3.05;1.13;;;-3.30;99.90;;;;;;5089778;28;20075;-71
2021/12/25 06:24:39;;;;;;;4.10;1.73;;;-3.30;99.90;;;;;;5089652;28;20464;-71
2021/12/25 06:27:05;;;;;;;5.80;1.33;;;-3.30;99.90;;;;;;5085295;28;20093;-74
2021/12/25 06:29:30;;;;;;;3.97;1.73;;;-3.30;99.90;;;;;;5088480;28;20036;-72
2021/12/25 06:31:57;;;;;;;3.80;2.05;;;-3.40;99.90;;;;;;5090399;28;20036;-70
2021/12/25 06:34:22;;;;;;;4.65;1.20;;;-3.40;99.90;;;;;;5088899;28;20040;-72
2021/12/25 06:36:48;;;;;;;2.05;0.90;;;-3.40;99.90;;;;;;5087291;28;20506;-74
2021/12/25 06:39:15;;;;;;;4.07;1.38;;;-3.50;99.90;;;;;;5085495;28;20045;-72
2021/12/25 06:41:43;;;;;;;1.83;1.00;;;-3.50;99.90;;;;;;5098732;28;20043;-70
2021/12/25 06:44:09;;;;;;;6.25;2.55;;;-3.50;99.90;;;;;;5091010;28;20063;-70
2021/12/25 06:46:34;;;;;;;3.40;1.25;;;-3.50;99.90;;;;;;5093623;28;20048;-74
2021/12/25 06:49:00;;;;;;;4.22;0.95;;;-3.60;99.90;;;;;;5088541;28;20414;-70
2021/12/25 06:51:26;;;;;;;2.22;1.00;;;-3.60;99.90;;;;;;5076763;28;20123;-72
2021/12/25 06:53:51;;;;;;;2.00;0.93;;;-3.60;99.90;;;;;;5081100;28;20028;-71
2021/12/25 06:56:18;;;;;;;2.13;1.08;;;-3.60;99.90;;;;;;5089024;28;20048;-75
2021/12/25 06:58:43;;;;;;;7.22;0.70;;;-3.60;99.90;;;;;;5096448;28;20057;-70
2021/12/25 07:01:09;;;;;;;2.35;0.77;;;-3.60;99.90;;;;;;5093384;28;20036;-71
2021/12/25 07:03:35;;;;;;;1.95;0.80;;;-3.70;99.90;;;;;;5075475;28;20055;-72
2021/12/25 07:06:00;;;;;;;3.95;0.70;;;-3.70;99.90;;;;;;5091525;28;20070;-73
2021/12/25 07:08:26;;;;;;;1.50;0.63;;;-3.70;99.90;;;;;;5104295;27;20048;-70
2021/12/25 07:10:51;;;;;;;1.77;0.82;;;-3.70;99.90;;;;;;5088659;28;20115;-72
2021/12/25 07:13:19;;;;;;;4.50;1.00;;;-3.80;99.90;;;;;;5071465;28;20040;-71
2021/12/25 07:15:46;;;;;;;2.60;0.60;;;-3.80;99.90;;;;;;5088070;28;20336;-73
2021/12/25 07:18:11;;;;;;;2.17;0.50;;;-3.80;99.90;;;;;;5088019;28;20059;-75
2021/12/25 07:20:37;;;;;;;5.38;1.17;;;-3.80;99.90;;;;;;5071038;28;20454;-73
2021/12/25 07:23:03;;;;;;;3.22;2.08;;;-3.90;99.90;;;;;;5086022;28;20113;-70
2021/12/25 07:25:30;;;;;;;4.05;0.60;;;-3.90;99.90;;;;;;5086676;28;20165;-75
2021/12/25 07:27:55;;;;;;;1.27;0.70;;;-3.90;99.90;;;;;;5085620;28;20036;-71
2021/12/25 07:30:22;;;;;;;0.82;0.40;;;-4.00;99.90;;;;;;5087225;28;20132;-68
2021/12/25 07:32:47;;;;;;;3.28;0.90;;;-3.90;99.90;;;;;;5087964;28;20040;-69
2021/12/25 07:35:13;;;;;;;1.25;0.70;;;-4.00;99.90;;;;;;5087256;28;20053;-71
2021/12/25 07:37:38;;;;;;;2.05;0.52;;;-4.00;99.90;;;;;;5087606;28;20028;-74
2021/12/25 07:40:08;;;;;;;2.72;0.60;;;-4.00;99.90;;;;;;5085323;28;20510;-72
2021/12/25 07:42:33;;;;;;;0.75;0.52;;;-4.00;99.90;;;;;;5087248;28;20029;-72
2021/12/25 07:45:04;;;;;;;1.50;0.75;;;-4.10;99.90;;;;;;5087809;28;20375;-76
2021/12/25 07:47:32;;;;;;;0.60;0.28;;;-4.10;99.90;;;;;;5087854;28;20059;-74
2021/12/25 07:49:59;;;;;;;0.95;0.50;;;-4.10;99.90;;;;;;5087902;28;20486;-73
2021/12/25 07:52:26;;;;;;;1.33;0.40;;;-4.10;99.90;;;;;;5085231;28;20036;-70
2021/12/25 07:54:51;;;;;;;1.27;0.60;;;-4.20;99.90;;;;;;5074150;28;20044;-70
2021/12/25 07:57:17;;;;;;;2.20;0.45;;;-4.10;99.90;;;;;;5085838;28;20028;-73
2021/12/25 07:59:42;;;;;;;1.90;0.50;;;-4.20;99.90;;;;;;5088177;28;20526;-73
2021/12/25 08:02:08;;;;;;;1.30;0.30;;;-4.20;99.90;;;;;;5087752;28;20115;-72
2021/12/25 08:04:34;;;;;;;3.17;0.50;;;-4.20;99.90;;;;;;5088630;28;20030;-72
2021/12/25 08:06:59;;;;;;;0.93;0.43;;;-4.10;99.90;;;;;;5088398;28;20036;-72
2021/12/25 08:09:29;;;;;;;2.03;0.55;;;-4.10;99.90;;;;;;5088701;28;20394;-68
2021/12/25 08:12:04;;;;;;;0.40;0.32;;;-4.20;99.90;;;;;;5087953;28;20501;-70
2021/12/25 08:14:32;;;;;;;4.90;0.85;;;-4.20;99.90;;;;;;5071420;28;20042;-69
2021/12/25 08:17:00;;;;;;;1.30;0.47;;;-4.20;99.90;;;;;;5091988;28;20470;-70
2021/12/25 08:19:26;;;;;;;4.63;0.70;;;-4.20;99.90;;;;;;5096168;28;20527;-70
2021/12/25 08:21:51;;;;;;;1.75;0.40;;;-4.20;99.90;;;;;;5082446;28;20036;-69
2021/12/25 08:24:18;;;;;;;5.45;0.90;;;-4.20;99.90;;;;;;5085718;28;20092;-72
2021/12/25 08:26:46;;;;;;;0.82;0.30;;;-4.20;99.90;;;;;;5085454;28;20055;-70
2021/12/25 08:29:13;;;;;;;2.85;0.40;;;-4.10;99.90;;;;;;5096650;28;20505;-70
2021/12/25 08:31:41;;;;;;;1.98;0.90;;;-4.20;99.90;;;;;;5098259;28;20470;-70
2021/12/25 08:34:08;;;;;;;4.43;0.73;;;-4.10;99.90;;;;;;5089718;28;20046;-72
2021/12/25 08:36:34;;;;;;;2.08;0.60;;;-4.20;99.90;;;;;;5081889;28;20411;-72
2021/12/25 08:39:00;;;;;;;1.85;0.60;;;-4.10;99.90;;;;;;5090867;28;20035;-73
2021/12/25 08:41:29;;;;;;;2.25;0.50;;;-4.10;99.90;;;;;;5091405;28;20040;-69
2021/12/25 08:43:59;;;;;;;11.63;1.05;;;-4.10;99.90;;;;;;5093110;28;20074;-71
2021/12/25 08:46:43;;;;;;;1.65;0.60;;;-4.10;99.90;;;;;;5080417;28;20123;-70
2021/12/25 08:49:17;;;;;;;3.40;0.60;;;-4.10;99.90;;;;;;5075053;28;20122;-68
2021/12/25 08:51:46;;;;;;;4.10;0.77;;;-4.10;99.90;;;;;;5072373;28;20139;-71
2021/12/25 08:54:12;;;;;;;2.22;0.70;;;-4.10;99.90;;;;;;5095860;28;20068;-69
2021/12/25 08:56:38;;;;;;;8.05;1.45;;;-4.10;99.90;;;;;;5093224;28;20047;-71
2021/12/25 08:59:04;;;;;;;4.32;0.43;;;-4.10;99.90;;;;;;5104846;28;20103;-70
2021/12/25 09:01:29;;;;;;;2.80;0.70;;;-4.10;99.90;;;;;;5110250;28;20112;-70
2021/12/25 09:03:56;;;;;;;4.10;0.60;;;-4.10;99.90;;;;;;5092999;28;20397;-71
2021/12/25 09:06:22;;;;;;;1.48;0.52;;;-4.00;99.90;;;;;;5093323;28;20036;-71
2021/12/25 09:08:48;;;;;;;7.28;0.80;;;-4.00;99.90;;;;;;5081243;28;20155;-70
2021/12/25 09:11:24;;;;;;;2.25;0.40;;;-4.00;99.90;;;;;;5092762;28;20048;-71
2021/12/25 09:13:50;;;;;;;5.43;0.75;;;-4.00;99.90;;;;;;5086734;28;20755;-72
2021/12/25 09:16:17;;;;;;;3.17;0.65;;;-4.00;99.90;;;;;;5092536;28;20332;-69
2021/12/25 09:18:42;;;;;;;1.08;0.65;;;-3.90;99.90;;;;;;5091833;28;20043;-72
2021/12/25 09:21:08;;;;;;;0.80;0.50;;;-3.80;99.90;;;;;;5086251;28;20041;-70
2021/12/25 09:23:34;;;;;;;7.45;0.90;;;-3.80;99.90;;;;;;5078945;28;20483;-68
2021/12/25 09:25:59;;;;;;;3.20;1.05;;;-3.70;99.90;;;;;;5090269;28;20047;-75
2021/12/25 09:28:25;;;;;;;2.00;0.50;;;-3.60;99.90;;;;;;5091969;28;20051;-72
2021/12/25 09:30:51;;;;;;;1.45;0.52;;;-3.60;99.90;;;;;;5072081;28;20040;-69
2021/12/25 09:33:16;;;;;;;1.83;0.52;;;-3.50;99.90;;;;;;5085616;28;20048;-72
2021/12/25 09:35:48;;;;;;;1.92;0.57;;;-3.40;99.90;;;;;;5090879;28;20506;-70
2021/12/25 09:38:14;;;;;;;5.93;0.93;;;-3.40;99.90;;;;;;5063294;28;20093;-76
2021/12/25 09:40:39;;;;;;;3.22;0.90;;;-3.30;99.90;;;;;;5083572;28;20032;-71
2021/12/25 09:43:06;;;;;;;1.40;0.60;;;-3.30;99.90;;;;;;5087160;28;20043;-71
2021/12/25 09:45:32;;;;;;;4.25;0.50;;;-3.20;99.90;;;;;;5092333;28;20032;-73
2021/12/25 09:47:58;;;;;;;2.85;0.50;;;-3.20;99.90;;;;;;5074519;28;20104;-73
2021/12/25 09:50:23;;;;;;;1.38;0.70;;;-3.20;99.90;;;;;;5091272;28;20040;-70
2021/12/25 09:52:49;;;;;;;2.58;0.73;;;-3.10;99.90;;;;;;5091726;28;20039;-71
2021/12/25 09:55:18;;;;;;;2.88;0.77;;;-3.10;99.90;;;;;;5069245;28;20063;-70
2021/12/25 09:57:44;;;;;;;1.77;0.60;;;-3.10;99.90;;;;;;5082793;28;20036;-72
2021/12/25 10:00:14;;;;;;;4.25;0.73;;;-3.10;99.90;;;;;;5087258;28;20382;-73
2021/12/25 10:02:43;;;;;;;1.58;0.57;;;-3.10;99.90;;;;;;5099647;28;20436;-72
2021/12/25 10:05:10;;;;;;;3.08;0.75;;;-3.00;99.90;;;;;;5083856;28;20435;-72
2021/12/25 10:07:36;;;;;;;6.65;0.63;;;-3.00;99.90;;;;;;5060391;28;20079;-73
2021/12/25 10:10:16;;;;;;;5.90;0.73;;;-3.00;99.90;;;;;;5080201;28;20043;-69
2021/12/25 10:12:44;;;;;;;4.28;0.70;;;-2.90;99.90;;;;;;5081168;28;20491;-70
2021/12/25 10:15:13;;;;;;;4.90;0.60;;;-2.90;99.90;;;;;;5079020;28;20028;-68
2021/12/25 10:17:59;;;;;;;1.15;0.70;;;-2.80;99.90;;;;;;5094153;28;20046;-70
2021/12/25 10:20:28;;;;;;;1.63;0.70;;;-2.80;99.90;;;;;;5092398;28;20173;-66
2021/12/25 10:23:08;;;;;;;3.15;0.68;;;-2.70;99.90;;;;;;5090076;28;20505;-69
2021/12/25 10:25:59;;;;;;;5.43;1.75;;;-2.70;99.90;;;;;;5096436;28;20106;-70
2021/12/25 10:28:33;;;;;;;2.33;0.75;;;-2.60;99.90;;;;;;5110548;28;20043;-69
2021/12/25 10:31:16;;;;;;;7.68;0.80;;;-2.60;99.90;;;;;;5078864;28;20090;-68
2021/12/25 10:33:53;;;;;;;4.10;0.70;;;-2.60;99.90;;;;;;5102886;28;20043;-67
2021/12/25 10:36:36;;;;;;;6.60;1.13;;;-2.50;99.90;;;;;;5086093;28;20076;-69
2021/12/25 10:39:07;;;;;;;;;;;-2.50;99.90;;;;;;5108452;28;20067;-68
2021/12/25 10:41:35;;;;;;;1.88;0.60;;;-2.40;99.90;;;;;;5073062;28;19916;-67
2021/12/25 10:44:13;;;;;;;4.22;1.20;;;-2.40;99.90;;;;;;5090899;28;20482;-68
2021/12/25 10:47:01;;;;;;;3.92;1.02;;;-2.40;99.90;;;;;;5071956;28;20080;-66
2021/12/25 10:49:31;;;;;;;9.85;1.10;;;-2.40;99.90;;;;;;5089199;28;20039;-69
2021/12/25 10:52:09;;;;;;;2.58;1.00;;;-2.30;99.90;;;;;;5081860;28;20158;-68
2021/12/25 10:54:38;;;;;;;3.20;0.85;;;-2.30;99.90;;;;;;5091552;28;20083;-67
2021/12/25 10:57:05;;;;;;;4.32;0.85;;;-2.30;99.90;;;;;;5091421;28;20040;-67
2021/12/25 10:59:43;;;;;;;2.75;0.63;;;-2.30;99.90;;;;;;5101161;28;20058;-67
2021/12/25 11:02:08;;;;;;;5.68;1.27;;;-2.20;99.90;;;;;;5078164;28;20480;-68
2021/12/25 11:04:36;;;;;;;3.75;1.10;;;-2.20;99.90;;;;;;5106044;28;20115;-66
2021/12/25 11:07:16;;;;;;;2.83;0.90;;;-2.20;99.90;;;;;;5095984;28;20517;-68
2021/12/25 11:10:09;;;;;;;5.97;0.85;;;-2.20;99.90;;;;;;5090406;28;20097;-66
2021/12/25 11:12:36;;;;;;;2.25;0.60;;;-2.20;99.90;;;;;;5107811;28;20122;-66
2021/12/25 11:15:21;;;;;;;3.70;1.00;;;-2.10;99.90;;;;;;5091219;28;20144;-65
2021/12/25 11:18:03;;;;;;;4.13;0.93;;;-2.10;99.90;;;;;;5109203;28;20161;-67
2021/12/25 11:20:34;;;;;;;4.40;1.13;;;-2.10;99.90;;;;;;5077346;28;20114;-70
2021/12/25 11:23:03;;;;;;;5.30;1.00;;;-2.00;99.90;;;;;;5070187;28;20513;-70
2021/12/25 11:25:31;;;;;;;4.55;1.05;;;-2.00;99.90;;;;;;5070183;28;20126;-67
2021/12/25 11:27:58;;;;;;;1.42;0.70;;;-1.90;99.90;;;;;;5108170;28;20047;-70
2021/12/25 11:30:27;;;;;;;2.15;0.80;;;-1.90;99.90;;;;;;5110218;28;20493;-69
2021/12/25 11:32:58;;;;;;;2.03;0.65;;;-1.90;99.90;;;;;;5105595;28;20549;-67
2021/12/25 11:35:24;;;;;;;3.30;1.55;;;-1.80;99.90;;;;;;5107428;28;20131;-67
2021/12/25 11:37:52;;;;;;;4.85;1.05;;;-1.80;99.90;;;;;;5090027;28;20032;-69
2021/12/25 11:40:21;;;;;;;0.85;0.70;;;-1.80;99.90;;;;;;5088749;28;20042;-71
2021/12/25 11:42:49;;;;;;;3.58;0.80;;;-1.80;99.90;;;;;;5081094;28;20048;-67
2021/12/25 11:45:18;;;;;;;3.35;0.60;;;-1.70;99.90;;;;;;5077560;28;20048;-66
2021/12/25 11:47:51;;;;;;;2.53;0.85;;;-1.70;99.90;;;;;;5088387;28;20028;-71
2021/12/25 11:50:34;;;;;;;3.78;0.90;;;-1.70;99.90;;;;;;5096195;28;20482;-69
2021/12/25 11:53:13;;;;;;;1.73;0.50;;;-1.60;99.90;;;;;;5106412;28;20130;-69
2021/12/25 11:58:25;;;;;;;3.22;0.77;;;-1.60;99.90;;;;;;5105841;28;20074;-69
2021/12/25 12:00:52;;;;;;;3.03;0.98;;;-1.60;99.90;;;;;;5087745;28;20086;-69
2021/12/25 12:03:44;;;;;;;3.80;0.85;;;-1.50;99.90;;;;;;5099118;28;20082;-71
2021/12/25 12:06:12;;;;;;;3.17;1.00;;;-1.50;99.90;;;;;;5093171;28;20066;-69
2021/12/25 12:08:53;;;;;;;1.15;0.60;;;-1.50;99.90;;;;;;5086330;28;20063;-69
2021/12/25 12:11:28;;;;;;;11.52;1.30;;;-1.50;99.90;;;;;;5105259;28;20176;-68
2021/12/25 12:14:17;;;;;;;2.88;0.60;;;-1.50;99.90;;;;;;5113135;28;20058;-68
2021/12/25 12:16:51;;;;;;;3.22;0.90;;;-1.50;99.90;;;;;;5062319;28;20047;-68
2021/12/25 12:19:37;;;;;;;5.20;0.93;;;-1.50;99.90;;;;;;5099994;28;20405;-70
2021/12/25 12:22:15;;;;;;;4.20;1.00;;;-1.40;99.90;;;;;;5091915;28;20580;-67
2021/12/25 12:24:49;;;;;;;2.17;0.70;;;-1.40;99.90;;;;;;5091548;28;20036;-70
2021/12/25 12:27:46;;;;;;;6.22;1.33;;;-1.40;99.90;;;;;;5077973;28;20040;-68
2021/12/25 12:30:34;;;;;;;8.82;2.28;;;-1.40;99.90;;;;;;5089432;28;20051;-71
2021/12/25 12:33:13;;;;;;;7.50;1.40;;;-1.40;99.90;;;;;;5101170;28;20486;-72
2021/12/25 12:35:41;;;;;;;1.95;0.98;;;-1.30;99.90;;;;;;5092477;28;20044;-70
2021/12/25 12:38:42;;;;;;;10.95;3.08;;;-1.30;99.90;;;;;;5092855;28;20048;-70
2021/12/25 12:41:22;;;;;;;1.63;0.82;;;-1.30;99.90;;;;;;5073228;28;20037;-69
2021/12/25 12:44:12;;;;;;;2.35;0.75;;;-1.30;99.90;;;;;;5072554;28;20122;-72
2021/12/25 12:46:51;;;;;;;2.83;1.25;;;-1.30;99.90;;;;;;5092385;28;20119;-71
2021/12/25 12:49:19;;;;;;;4.43;1.55;;;-1.30;99.90;;;;;;5091680;28;20173;-71
2021/12/25 12:52:21;;;;;;;5.60;1.70;;;-1.30;99.90;;;;;;5075846;28;20040;-71
2021/12/25 12:54:46;;;;;;;3.60;1.30;;;-1.30;99.90;;;;;;5092268;28;20074;-68
2021/12/25 12:57:33;;;;;;;9.63;3.08;;;-1.30;99.90;;;;;;5080509;28;20083;-72
2021/12/25 13:00:13;;;;;;;5.45;1.55;;;-1.30;99.90;;;;;;5070726;28;20041;-68
2021/12/25 13:02:44;;;;;;;6.93;1.70;;;-1.30;99.90;;;;;;5076119;28;20036;-71
2021/12/25 13:05:11;;;;;;;4.82;1.70;;;-1.30;99.90;;;;;;5091902;28;20575;-68
2021/12/25 13:07:39;;;;;;;2.38;1.25;;;-1.30;99.90;;;;;;5092059;28;20036;-69
2021/12/25 13:10:26;;;;;;;3.38;1.40;;;-1.30;99.90;;;;;;5091313;28;20115;-66
2021/12/25 13:13:04;;;;;;;8.43;1.83;;;-1.30;99.90;;;;;;5091190;28;20768;-67
2021/12/25 13:15:33;;;;;;;3.33;0.85;;;-1.30;99.90;;;;;;5094818;28;20044;-69
2021/12/25 13:18:02;;;;;;;3.88;1.40;;;-1.30;99.90;;;;;;5102020;28;20040;-66
2021/12/25 13:20:33;;;;;;;6.03;1.50;;;-1.30;99.90;;;;;;5118104;27;20067;-66
2021/12/25 13:23:01;;;;;;;4.68;1.17;;;-1.30;99.90;;;;;;5098581;28;20084;-67
2021/12/25 13:25:26;;;;;;;5.72;1.33;;;-1.20;99.90;;;;;;5084961;28;20032;-66
2021/12/25 13:28:01;;;;;;;1.67;0.90;;;-1.30;99.90;;;;;;5089122;28;20102;-68
2021/12/25 13:30:28;;;;;;;3.22;1.40;;;-1.20;99.90;;;;;;5087342;28;20054;-66
2021/12/25 13:32:54;;;;;;;3.25;0.90;;;-1.30;99.90;;;;;;5104041;28;20035;-67
2021/12/25 13:35:24;;;;;;;9.25;1.15;;;-1.20;99.90;;;;;;5094015;28;20051;-67
2021/12/25 13:37:58;;;;;;;3.05;1.20;;;-1.30;99.90;;;;;;5090454;28;20122;-68
2021/12/25 13:40:24;;;;;;;4.82;1.20;;;-1.30;99.90;;;;;;5095108;28;20172;-67
2021/12/25 13:42:49;;;;;;;1.48;0.82;;;-1.30;99.90;;;;;;5097315;28;20059;-67
2021/12/25 13:45:15;;;;;;;2.60;0.75;;;-1.30;99.90;;;;;;5090982;28;20394;-66
2021/12/25 13:47:40;;;;;;;3.90;1.38;;;-1.30;99.90;;;;;;5095248;28;20054;-67
2021/12/25 13:50:09;;;;;;;3.00;0.90;;;-1.30;99.90;;;;;;5094786;28;20077;-66
2021/12/25 13:52:40;;;;;;;1.48;0.80;;;-1.30;99.90;;;;;;5102977;28;20368;-67
2021/12/25 13:55:34;;;;;;;2.63;1.10;;;-1.30;99.90;;;;;;5100943;28;20122;-68
2021/12/25 13:58:10;;;;;;;8.40;2.60;;;-1.40;99.90;;;;;;5090178;28;20044;-67
2021/12/25 14:00:44;;;;;;;5.05;1.58;;;-1.40;99.90;;;;;;5095896;28;20066;-67
2021/12/25 14:03:12;;;;;;;4.75;1.70;;;-1.40;99.90;;;;;;5079943;28;20084;-70
2021/12/25 14:05:42;;;;;;;6.05;1.70;;;-1.40;99.90;;;;;;5091816;28;20050;-67
2021/12/25 14:08:10;;;;;;;3.47;1.65;;;-1.40;99.90;;;;;;5095961;28;20040;-67
2021/12/25 14:10:37;;;;;;;2.55;1.10;;;-1.50;99.90;;;;;;5095881;28;20046;-68
2021/12/25 14:13:09;;;;;;;4.90;0.80;;;-1.50;99.90;;;;;;5102021;28;20088;-68